sensor_id;sensor_type;location;lat;lon;timestamp;pressure;altitude;pressure_sealevel;temperature;humidity
63652;BME280;49801;37.536;-122.304;2022-09-24T00:00:12;101141.34;;;29.07;29.49
63652;BME280;49801;37.536;-122.304;2022-09-24T00:00:37;101139.69;;;29.06;29.82
63652;BME280;49801;37.536;-122.304;2022-09-24T00:01:10;101141.34;;;29.07;29.46
63652;BME280;49801;37.536;-122.304;2022-09-24T00:01:37;101134.44;;;28.99;29.57
63652;BME280;49801;37.536;-122.304;2022-09-24T00:02:03;101137.25;;;28.94;29.43
63652;BME280;49801;37.536;-122.304;2022-09-24T00:02:29;101143.66;;;28.94;29.68
63652;BME280;49801;37.536;-122.304;2022-09-24T00:02:55;101136.44;;;28.93;29.72
63652;BME280;49801;37.536;-122.304;2022-09-24T00:03:21;101135.81;;;28.96;30.06
63652;BME280;49801;37.536;-122.304;2022-09-24T00:03:48;101144.72;;;28.98;29.65
63652;BME280;49801;37.536;-122.304;2022-09-24T00:04:14;101146.97;;;28.96;28.96
63652;BME280;49801;37.536;-122.304;2022-09-24T00:04:40;101136.44;;;28.93;29.45
63652;BME280;49801;37.536;-122.304;2022-09-24T00:05:06;101134.75;;;28.92;29.50
63652;BME280;49801;37.536;-122.304;2022-09-24T00:05:38;101144.19;;;28.96;29.27
63652;BME280;49801;37.536;-122.304;2022-09-24T00:06:04;101142.00;;;28.93;29.35
63652;BME280;49801;37.536;-122.304;2022-09-24T00:06:33;101137.53;;;28.92;29.78
63652;BME280;49801;37.536;-122.304;2022-09-24T00:06:59;101134.22;;;28.90;29.58
63652;BME280;49801;37.536;-122.304;2022-09-24T00:07:25;101140.88;;;28.89;29.70
63652;BME280;49801;37.536;-122.304;2022-09-24T00:07:51;101140.88;;;28.89;29.44
63652;BME280;49801;37.536;-122.304;2022-09-24T00:08:17;101139.81;;;28.85;29.42
63652;BME280;49801;37.536;-122.304;2022-09-24T00:08:44;101145.94;;;28.82;29.63
63652;BME280;49801;37.536;-122.304;2022-09-24T00:09:10;101141.47;;;28.81;29.71
63652;BME280;49801;37.536;-122.304;2022-09-24T00:09:36;101147.34;;;28.79;29.26
63652;BME280;49801;37.536;-122.304;2022-09-24T00:10:02;101144.28;;;28.76;29.46
63652;BME280;49801;37.536;-122.304;2022-09-24T00:10:28;101145.44;;;28.75;29.76
63652;BME280;49801;37.536;-122.304;2022-09-24T00:10:54;101144.00;;;28.77;29.63
63652;BME280;49801;37.536;-122.304;2022-09-24T00:11:22;101147.66;;;28.78;29.70
63652;BME280;49801;37.536;-122.304;2022-09-24T00:11:48;101140.13;;;28.78;29.62
63652;BME280;49801;37.536;-122.304;2022-09-24T00:12:16;101144.25;;;28.81;29.92
63652;BME280;49801;37.536;-122.304;2022-09-24T00:12:43;101147.06;;;28.81;29.85
63652;BME280;49801;37.536;-122.304;2022-09-24T00:13:10;101142.63;;;28.75;29.42
63652;BME280;49801;37.536;-122.304;2022-09-24T00:13:36;101142.09;;;28.73;29.58
63652;BME280;49801;37.536;-122.304;2022-09-24T00:14:02;101143.75;;;28.74;29.65
63652;BME280;49801;37.536;-122.304;2022-09-24T00:14:28;101138.19;;;28.74;29.68
63652;BME280;49801;37.536;-122.304;2022-09-24T00:14:54;101139.84;;;28.75;29.94
63652;BME280;49801;37.536;-122.304;2022-09-24T00:15:19;101147.94;;;28.76;30.10
63652;BME280;49801;37.536;-122.304;2022-09-24T00:15:46;101140.69;;;28.75;29.63
63652;BME280;49801;37.536;-122.304;2022-09-24T00:16:13;101140.94;;;28.79;29.38
63652;BME280;49801;37.536;-122.304;2022-09-24T00:16:39;101140.94;;;28.79;29.58
63652;BME280;49801;37.536;-122.304;2022-09-24T00:17:05;101145.97;;;28.77;29.68
63652;BME280;49801;37.536;-122.304;2022-09-24T00:17:31;101142.63;;;28.75;29.30
63652;BME280;49801;37.536;-122.304;2022-09-24T00:17:57;101142.91;;;28.73;29.31
63652;BME280;49801;37.536;-122.304;2022-09-24T00:18:23;101147.66;;;28.73;29.08
63652;BME280;49801;37.536;-122.304;2022-09-24T00:18:49;101146.81;;;28.72;29.46
63652;BME280;49801;37.536;-122.304;2022-09-24T00:19:14;101145.16;;;28.71;29.08
63652;BME280;49801;37.536;-122.304;2022-09-24T00:19:40;101146.00;;;28.72;29.22
63652;BME280;49801;37.536;-122.304;2022-09-24T00:20:06;101139.34;;;28.68;29.45
63652;BME280;49801;37.536;-122.304;2022-09-24T00:20:32;101143.22;;;28.67;29.17
63652;BME280;49801;37.536;-122.304;2022-09-24T00:20:58;101142.13;;;28.63;28.96
63652;BME280;49801;37.536;-122.304;2022-09-24T00:21:27;101147.13;;;28.60;29.03
63652;BME280;49801;37.536;-122.304;2022-09-24T00:21:53;101151.34;;;28.58;29.09
63652;BME280;49801;37.536;-122.304;2022-09-24T00:22:19;101143.78;;;28.53;28.92
63652;BME280;49801;37.536;-122.304;2022-09-24T00:22:45;101141.00;;;28.53;29.03
63652;BME280;49801;37.536;-122.304;2022-09-24T00:23:11;101136.56;;;28.52;29.28
63652;BME280;49801;37.536;-122.304;2022-09-24T00:23:36;101137.13;;;28.49;28.98
63652;BME280;49801;37.536;-122.304;2022-09-24T00:24:06;101141.03;;;28.48;29.22
63652;BME280;49801;37.536;-122.304;2022-09-24T00:24:32;101144.09;;;28.47;29.29
63652;BME280;49801;37.536;-122.304;2022-09-24T00:25:16;101140.22;;;28.42;29.16
63652;BME280;49801;37.536;-122.304;2022-09-24T00:26:00;101145.50;;;28.44;29.56
63652;BME280;49801;37.536;-122.304;2022-09-24T00:26:44;101142.44;;;28.46;29.41
63652;BME280;49801;37.536;-122.304;2022-09-24T00:27:16;101146.59;;;28.48;29.28
63652;BME280;49801;37.536;-122.304;2022-09-24T00:27:42;101142.16;;;28.47;29.01
63652;BME280;49801;37.536;-122.304;2022-09-24T00:28:07;101142.72;;;28.44;29.48
63652;BME280;49801;37.536;-122.304;2022-09-24T00:28:33;101139.94;;;28.44;29.43
63652;BME280;49801;37.536;-122.304;2022-09-24T00:28:59;101139.13;;;28.43;29.43
63652;BME280;49801;37.536;-122.304;2022-09-24T00:29:25;101138.25;;;28.43;29.66
63652;BME280;49801;37.536;-122.304;2022-09-24T00:29:51;101141.59;;;28.45;29.42
63652;BME280;49801;37.536;-122.304;2022-09-24T00:30:17;101142.44;;;28.46;29.79
63652;BME280;49801;37.536;-122.304;2022-09-24T00:30:43;101143.25;;;28.46;29.48
63652;BME280;49801;37.536;-122.304;2022-09-24T00:31:09;101141.91;;;28.43;29.65
63652;BME280;49801;37.536;-122.304;2022-09-24T00:31:34;101139.38;;;28.42;29.43
63652;BME280;49801;37.536;-122.304;2022-09-24T00:32:01;101138.00;;;28.39;29.61
63652;BME280;49801;37.536;-122.304;2022-09-24T00:32:26;101137.16;;;28.39;30.01
63652;BME280;49801;37.536;-122.304;2022-09-24T00:32:52;101142.75;;;28.39;29.87
63652;BME280;49801;37.536;-122.304;2022-09-24T00:33:18;101143.56;;;28.39;29.80
63652;BME280;49801;37.536;-122.304;2022-09-24T00:33:44;101137.16;;;28.39;30.01
63652;BME280;49801;37.536;-122.304;2022-09-24T00:34:10;101138.28;;;28.38;29.87
63652;BME280;49801;37.536;-122.304;2022-09-24T00:34:35;101133.56;;;28.33;29.49
63652;BME280;49801;37.536;-122.304;2022-09-24T00:35:01;101138.56;;;28.31;29.51
63652;BME280;49801;37.536;-122.304;2022-09-24T00:35:27;101138.84;;;28.30;29.32
63652;BME280;49801;37.536;-122.304;2022-09-24T00:35:59;101141.63;;;28.30;29.63
63652;BME280;49801;37.536;-122.304;2022-09-24T00:36:28;101142.75;;;28.29;29.72
63652;BME280;49801;37.536;-122.304;2022-09-24T00:36:54;101138.31;;;28.28;29.72
63652;BME280;49801;37.536;-122.304;2022-09-24T00:37:20;101139.44;;;28.27;29.43
63652;BME280;49801;37.536;-122.304;2022-09-24T00:37:45;101141.63;;;28.24;29.62
63652;BME280;49801;37.536;-122.304;2022-09-24T00:38:11;101136.66;;;28.21;29.21
63652;BME280;49801;37.536;-122.304;2022-09-24T00:38:37;101139.47;;;28.16;29.38
63652;BME280;49801;37.536;-122.304;2022-09-24T00:39:03;101139.47;;;28.16;29.45
63652;BME280;49801;37.536;-122.304;2022-09-24T00:39:29;101136.94;;;28.15;29.33
63652;BME280;49801;37.536;-122.304;2022-09-24T00:39:55;101133.63;;;28.13;29.80
63652;BME280;49801;37.536;-122.304;2022-09-24T00:40:25;101141.13;;;28.12;29.55
63652;BME280;49801;37.536;-122.304;2022-09-24T00:40:51;101135.00;;;28.10;29.68
63652;BME280;49801;37.536;-122.304;2022-09-24T00:41:18;101138.88;;;28.09;29.48
63652;BME280;49801;37.536;-122.304;2022-09-24T00:41:45;101148.38;;;28.08;29.80
63652;BME280;49801;37.536;-122.304;2022-09-24T00:42:17;101139.47;;;28.06;30.06
63652;BME280;49801;37.536;-122.304;2022-09-24T00:42:43;101143.91;;;28.02;29.41
63652;BME280;49801;37.536;-122.304;2022-09-24T00:43:22;101142.25;;;28.01;29.56
63652;BME280;49801;37.536;-122.304;2022-09-24T00:43:48;101144.50;;;27.99;29.98
63652;BME280;49801;37.536;-122.304;2022-09-24T00:44:56;101138.63;;;27.95;29.82
63652;BME280;49801;37.536;-122.304;2022-09-24T00:45:03;101134.72;;;27.91;29.62
63652;BME280;49801;37.536;-122.304;2022-09-24T00:45:29;101150.59;;;27.91;29.87
63652;BME280;49801;37.536;-122.304;2022-09-24T00:46:38;101146.69;;;27.86;30.21
63652;BME280;49801;37.536;-122.304;2022-09-24T00:47:06;101141.13;;;27.86;29.87
63652;BME280;49801;37.536;-122.304;2022-09-24T00:47:39;101145.03;;;27.85;29.93
63652;BME280;49801;37.536;-122.304;2022-09-24T00:48:06;101144.75;;;27.82;30.06
63652;BME280;49801;37.536;-122.304;2022-09-24T00:48:32;101145.03;;;27.80;29.99
63652;BME280;49801;37.536;-122.304;2022-09-24T00:49:00;101141.69;;;27.78;30.02
63652;BME280;49801;37.536;-122.304;2022-09-24T00:49:27;101146.41;;;27.78;30.12
63652;BME280;49801;37.536;-122.304;2022-09-24T00:50:06;101141.13;;;27.76;29.89
63652;BME280;49801;37.536;-122.304;2022-09-24T00:50:33;101137.50;;;27.76;30.30
63652;BME280;49801;37.536;-122.304;2022-09-24T00:51:00;101140.56;;;27.74;30.45
63652;BME280;49801;37.536;-122.304;2022-09-24T00:51:27;101143.34;;;27.74;30.24
63652;BME280;49801;37.536;-122.304;2022-09-24T00:51:54;101143.34;;;27.74;30.14
63652;BME280;49801;37.536;-122.304;2022-09-24T00:52:20;101140.56;;;27.74;30.28
63652;BME280;49801;37.536;-122.304;2022-09-24T00:52:50;101141.69;;;27.73;30.16
63652;BME280;49801;37.536;-122.304;2022-09-24T00:53:18;101150.31;;;27.72;30.15
63652;BME280;49801;37.536;-122.304;2022-09-24T00:53:45;101144.47;;;27.68;29.96
63652;BME280;49801;37.536;-122.304;2022-09-24T00:54:22;101145.03;;;27.65;30.11
63652;BME280;49801;37.536;-122.304;2022-09-24T00:54:50;101148.09;;;27.63;30.05
63652;BME280;49801;37.536;-122.304;2022-09-24T00:55:18;101139.19;;;27.61;30.48
63652;BME280;49801;37.536;-122.304;2022-09-24T00:55:45;101142.25;;;27.60;30.20
63652;BME280;49801;37.536;-122.304;2022-09-24T00:56:12;101140.56;;;27.59;30.35
63652;BME280;49801;37.536;-122.304;2022-09-24T00:56:39;101152.53;;;27.59;30.36
63652;BME280;49801;37.536;-122.304;2022-09-24T00:57:07;101146.13;;;27.59;30.70
63652;BME280;49801;37.536;-122.304;2022-09-24T00:57:33;101151.69;;;27.59;30.71
63652;BME280;49801;37.536;-122.304;2022-09-24T00:58:01;101149.47;;;27.56;30.66
63652;BME280;49801;37.536;-122.304;2022-09-24T00:58:28;101146.69;;;27.56;30.62
63652;BME280;49801;37.536;-122.304;2022-09-24T00:58:55;101146.69;;;27.56;30.53
63652;BME280;49801;37.536;-122.304;2022-09-24T00:59:22;101152.81;;;27.53;30.72
63652;BME280;49801;37.536;-122.304;2022-09-24T00:59:48;101155.00;;;27.50;30.53
63652;BME280;49801;37.536;-122.304;2022-09-24T01:00:14;101144.19;;;27.49;30.73
63652;BME280;49801;37.536;-122.304;2022-09-24T01:00:40;101153.38;;;27.49;30.87
63652;BME280;49801;37.536;-122.304;2022-09-24T01:01:09;101151.69;;;27.48;30.89
63652;BME280;49801;37.536;-122.304;2022-09-24T01:01:35;101154.19;;;27.50;30.91
63652;BME280;49801;37.536;-122.304;2022-09-24T01:02:01;101151.69;;;27.48;30.89
63652;BME280;49801;37.536;-122.304;2022-09-24T01:02:27;101160.03;;;27.48;31.10
63652;BME280;49801;37.536;-122.304;2022-09-24T01:02:55;101152.22;;;27.45;31.08
63652;BME280;49801;37.536;-122.304;2022-09-24T01:03:22;101154.47;;;27.43;30.68
63652;BME280;49801;37.536;-122.304;2022-09-24T01:03:50;101151.94;;;27.42;30.29
63652;BME280;49801;37.536;-122.304;2022-09-24T01:04:17;101155.00;;;27.40;30.48
63652;BME280;49801;37.536;-122.304;2022-09-24T01:04:46;101153.34;;;27.39;30.70
63652;BME280;49801;37.536;-122.304;2022-09-24T01:05:12;101152.78;;;27.37;30.68
63652;BME280;49801;37.536;-122.304;2022-09-24T01:05:38;101153.91;;;27.36;30.38
63652;BME280;49801;37.536;-122.304;2022-09-24T01:06:04;101152.22;;;27.35;30.38
63652;BME280;49801;37.536;-122.304;2022-09-24T01:06:30;101148.34;;;27.36;30.64
63652;BME280;49801;37.536;-122.304;2022-09-24T01:06:56;101152.78;;;27.32;30.39
63652;BME280;49801;37.536;-122.304;2022-09-24T01:07:21;101157.22;;;27.33;30.53
63652;BME280;49801;37.536;-122.304;2022-09-24T01:07:47;101144.44;;;27.32;31.03
63652;BME280;49801;37.536;-122.304;2022-09-24T01:08:13;101149.44;;;27.30;31.12
63652;BME280;49801;37.536;-122.304;2022-09-24T01:08:40;101153.34;;;27.29;30.56
63652;BME280;49801;37.536;-122.304;2022-09-24T01:09:06;101143.31;;;27.28;30.76
63652;BME280;49801;37.536;-122.304;2022-09-24T01:09:32;101154.66;;;27.26;30.79
63652;BME280;49801;37.536;-122.304;2022-09-24T01:09:59;101153.03;;;27.25;30.70
63652;BME280;49801;37.536;-122.304;2022-09-24T01:10:44;101156.63;;;27.26;30.28
63652;BME280;49801;37.536;-122.304;2022-09-24T01:11:31;101154.94;;;27.25;30.93
63652;BME280;49801;37.536;-122.304;2022-09-24T01:12:31;101154.38;;;27.23;30.70
63652;BME280;49801;37.536;-122.304;2022-09-24T01:13:09;101149.97;;;27.22;30.78
63652;BME280;49801;37.536;-122.304;2022-09-24T01:13:45;101157.16;;;27.18;30.89
63652;BME280;49801;37.536;-122.304;2022-09-24T01:15:37;101153.53;;;27.12;31.21
63652;BME280;49801;37.536;-122.304;2022-09-24T01:18:40;101156.03;;;27.03;31.24
63652;BME280;49801;37.536;-122.304;2022-09-24T01:20:48;101160.47;;;26.99;30.94
63652;BME280;49801;37.536;-122.304;2022-09-24T01:21:46;101155.44;;;26.96;31.49
63652;BME280;49801;37.536;-122.304;2022-09-24T01:22:21;101160.44;;;26.94;31.66
63652;BME280;49801;37.536;-122.304;2022-09-24T01:23:06;101157.66;;;26.94;31.84
63652;BME280;49801;37.536;-122.304;2022-09-24T01:24:17;101158.75;;;26.88;31.73
63652;BME280;49801;37.536;-122.304;2022-09-24T01:27:03;101158.69;;;26.78;31.74
63652;BME280;49801;37.536;-122.304;2022-09-24T01:27:39;101155.38;;;26.75;31.80
63652;BME280;49801;37.536;-122.304;2022-09-24T01:30:08;101165.91;;;26.68;32.21
63652;BME280;49801;37.536;-122.304;2022-09-24T01:30:35;101157.84;;;26.67;32.66
63652;BME280;49801;37.536;-122.304;2022-09-24T01:31:04;101164.75;;;26.64;32.42
63652;BME280;49801;37.536;-122.304;2022-09-24T01:31:39;101158.38;;;26.64;33.09
63652;BME280;49801;37.536;-122.304;2022-09-24T01:32:35;101158.03;;;26.60;32.53
63652;BME280;49801;37.536;-122.304;2022-09-24T01:33:05;101158.56;;;26.57;32.48
63652;BME280;49801;37.536;-122.304;2022-09-24T01:33:32;101156.34;;;26.54;32.26
63652;BME280;49801;37.536;-122.304;2022-09-24T01:34:01;101153.25;;;26.50;32.38
63652;BME280;49801;37.536;-122.304;2022-09-24T01:34:33;101160.22;;;26.48;32.78
63652;BME280;49801;37.536;-122.304;2022-09-24T01:35:01;101164.06;;;26.47;32.41
63652;BME280;49801;37.536;-122.304;2022-09-24T01:35:33;101162.94;;;26.43;32.45
63652;BME280;49801;37.536;-122.304;2022-09-24T01:36:00;101165.44;;;26.39;32.64
63652;BME280;49801;37.536;-122.304;2022-09-24T01:36:32;101155.94;;;26.35;32.72
63652;BME280;49801;37.536;-122.304;2022-09-24T01:36:59;101159.00;;;26.33;32.87
63652;BME280;49801;37.536;-122.304;2022-09-24T01:37:28;101167.28;;;26.28;32.72
63652;BME280;49801;37.536;-122.304;2022-09-24T01:38:00;101154.53;;;26.27;32.98
63652;BME280;49801;37.536;-122.304;2022-09-24T01:38:31;101164.47;;;26.23;33.20
63652;BME280;49801;37.536;-122.304;2022-09-24T01:38:59;101157.28;;;26.22;33.20
63652;BME280;49801;37.536;-122.304;2022-09-24T01:39:26;101166.69;;;26.21;33.10
63652;BME280;49801;37.536;-122.304;2022-09-24T01:39:53;101168.09;;;26.18;32.94
63652;BME280;49801;37.536;-122.304;2022-09-24T01:40:21;101166.41;;;26.17;32.95
63652;BME280;49801;37.536;-122.304;2022-09-24T01:40:49;101165.00;;;26.15;33.27
63652;BME280;49801;37.536;-122.304;2022-09-24T01:41:15;101160.25;;;26.10;33.05
63652;BME280;49801;37.536;-122.304;2022-09-24T01:41:41;101167.16;;;26.08;33.52
63652;BME280;49801;37.536;-122.304;2022-09-24T01:42:08;101159.38;;;26.05;33.20
63652;BME280;49801;37.536;-122.304;2022-09-24T01:42:35;101161.56;;;26.02;33.46
63652;BME280;49801;37.536;-122.304;2022-09-24T01:43:02;101158.75;;;25.97;33.36
63652;BME280;49801;37.536;-122.304;2022-09-24T01:43:29;101169.28;;;25.95;33.41
63652;BME280;49801;37.536;-122.304;2022-09-24T01:43:56;101162.09;;;25.94;33.48
63652;BME280;49801;37.536;-122.304;2022-09-24T01:44:23;101169.78;;;25.92;33.34
63652;BME280;49801;37.536;-122.304;2022-09-24T01:44:49;101167.25;;;25.91;33.36
63652;BME280;49801;37.536;-122.304;2022-09-24T01:45:16;101163.09;;;25.88;33.36
63652;BME280;49801;37.536;-122.304;2022-09-24T01:45:42;101167.25;;;25.86;33.26
63652;BME280;49801;37.536;-122.304;2022-09-24T01:46:07;101171.38;;;25.83;33.23
63652;BME280;49801;37.536;-122.304;2022-09-24T01:46:38;101163.00;;;25.78;33.23
63652;BME280;49801;37.536;-122.304;2022-09-24T01:47:04;101166.88;;;25.77;33.35
63652;BME280;49801;37.536;-122.304;2022-09-24T01:47:32;101166.31;;;25.75;33.15
63652;BME280;49801;37.536;-122.304;2022-09-24T01:47:59;101174.06;;;25.73;33.54
63652;BME280;49801;37.536;-122.304;2022-09-24T01:48:25;101167.13;;;25.70;33.45
63652;BME280;49801;37.536;-122.304;2022-09-24T01:48:51;101170.69;;;25.66;33.33
63652;BME280;49801;37.536;-122.304;2022-09-24T01:49:17;101170.63;;;25.60;33.54
63652;BME280;49801;37.536;-122.304;2022-09-24T01:49:43;101172.25;;;25.56;33.11
63652;BME280;49801;37.536;-122.304;2022-09-24T01:50:09;101168.91;;;25.54;33.34
63652;BME280;49801;37.536;-122.304;2022-09-24T01:50:41;101168.91;;;25.54;33.32
63652;BME280;49801;37.536;-122.304;2022-09-24T01:51:11;101162.22;;;25.50;33.55
63652;BME280;49801;37.536;-122.304;2022-09-24T01:52:06;101170.78;;;25.49;33.40
63652;BME280;49801;37.536;-122.304;2022-09-24T01:52:38;101167.72;;;25.45;33.59
63652;BME280;49801;37.536;-122.304;2022-09-24T01:53:07;101168.22;;;25.42;33.71
63652;BME280;49801;37.536;-122.304;2022-09-24T01:55:16;101165.34;;;25.32;34.08
63652;BME280;49801;37.536;-122.304;2022-09-24T01:55:45;101171.41;;;25.29;34.02
63652;BME280;49801;37.536;-122.304;2022-09-24T01:56:15;101171.06;;;25.25;33.89
63652;BME280;49801;37.536;-122.304;2022-09-24T01:56:47;101174.34;;;25.22;34.16
63652;BME280;49801;37.536;-122.304;2022-09-24T01:57:34;101166.84;;;25.17;34.35
63652;BME280;49801;37.536;-122.304;2022-09-24T01:58:05;101174.84;;;25.14;34.14
63652;BME280;49801;37.536;-122.304;2022-09-24T01:59:18;101173.09;;;25.07;34.36
63652;BME280;49801;37.536;-122.304;2022-09-24T01:59:47;101169.19;;;25.03;34.56
63652;BME280;49801;37.536;-122.304;2022-09-24T02:00:19;101168.88;;;25.00;34.18
63652;BME280;49801;37.536;-122.304;2022-09-24T02:00:46;101169.63;;;24.95;34.29
63652;BME280;49801;37.536;-122.304;2022-09-24T02:01:16;101173.75;;;24.93;34.73
63652;BME280;49801;37.536;-122.304;2022-09-24T02:03:28;101175.31;;;24.83;34.68
63652;BME280;49801;37.536;-122.304;2022-09-24T02:03:57;101167.75;;;24.79;35.18
63652;BME280;49801;37.536;-122.304;2022-09-24T02:04:25;101168.28;;;24.76;35.16
63652;BME280;49801;37.536;-122.304;2022-09-24T02:04:55;101171.31;;;24.74;35.13
63652;BME280;49801;37.536;-122.304;2022-09-24T02:06:07;101173.41;;;24.67;35.21
63652;BME280;49801;37.536;-122.304;2022-09-24T02:06:37;101173.94;;;24.64;35.19
63652;BME280;49801;37.536;-122.304;2022-09-24T02:07:05;101166.16;;;24.61;35.47
63652;BME280;49801;37.536;-122.304;2022-09-24T02:07:41;101173.88;;;24.59;35.53
63652;BME280;49801;37.536;-122.304;2022-09-24T02:08:39;101173.19;;;24.51;35.96
63652;BME280;49801;37.536;-122.304;2022-09-24T02:09:05;101173.97;;;24.47;35.82
63652;BME280;49801;37.536;-122.304;2022-09-24T02:09:35;101178.06;;;24.44;35.79
63652;BME280;49801;37.536;-122.304;2022-09-24T02:10:01;101179.44;;;24.42;35.77
63652;BME280;49801;37.536;-122.304;2022-09-24T02:10:27;101179.09;;;24.38;35.69
63652;BME280;49801;37.536;-122.304;2022-09-24T02:10:56;101181.28;;;24.36;35.75
63652;BME280;49801;37.536;-122.304;2022-09-24T02:11:24;101179.03;;;24.33;35.95
63652;BME280;49801;37.536;-122.304;2022-09-24T02:11:52;101171.22;;;24.30;35.97
63652;BME280;49801;37.536;-122.304;2022-09-24T02:12:26;101174.25;;;24.28;36.14
63652;BME280;49801;37.536;-122.304;2022-09-24T02:12:57;101177.25;;;24.27;35.92
63652;BME280;49801;37.536;-122.304;2022-09-24T02:13:27;101182.47;;;24.23;36.03
63652;BME280;49801;37.536;-122.304;2022-09-24T02:14:22;101180.97;;;24.15;36.05
63652;BME280;49801;37.536;-122.304;2022-09-24T02:15:31;101182.31;;;24.13;36.10
63652;BME280;49801;37.536;-122.304;2022-09-24T02:15:38;101181.97;;;24.09;36.25
63652;BME280;49801;37.536;-122.304;2022-09-24T02:16:07;101179.72;;;24.06;36.72
63652;BME280;49801;37.536;-122.304;2022-09-24T02:16:41;101173.59;;;24.04;36.72
63652;BME280;49801;37.536;-122.304;2022-09-24T02:17:09;101175.78;;;24.02;36.28
63652;BME280;49801;37.536;-122.304;2022-09-24T02:17:37;101181.22;;;23.97;36.71
63652;BME280;49801;37.536;-122.304;2022-09-24T02:18:05;101184.25;;;23.95;36.71
63652;BME280;49801;37.536;-122.304;2022-09-24T02:18:33;101178.38;;;23.92;36.42
63652;BME280;49801;37.536;-122.304;2022-09-24T02:19:02;101180.56;;;23.90;36.60
63652;BME280;49801;37.536;-122.304;2022-09-24T02:19:30;101178.31;;;23.87;36.38
63652;BME280;49801;37.536;-122.304;2022-09-24T02:19:56;101177.72;;;23.85;36.56
63652;BME280;49801;37.536;-122.304;2022-09-24T02:20:25;101174.63;;;23.81;36.80
63652;BME280;49801;37.536;-122.304;2022-09-24T02:20:52;101176.50;;;23.81;36.79
63652;BME280;49801;37.536;-122.304;2022-09-24T02:21:19;101175.91;;;23.78;36.62
63652;BME280;49801;37.536;-122.304;2022-09-24T02:21:46;101184.44;;;23.77;36.58
63652;BME280;49801;37.536;-122.304;2022-09-24T02:22:12;101184.13;;;23.73;36.65
63652;BME280;49801;37.536;-122.304;2022-09-24T02:22:38;101174.41;;;23.71;36.63
63652;BME280;49801;37.536;-122.304;2022-09-24T02:23:06;101179.59;;;23.67;36.74
63652;BME280;49801;37.536;-122.304;2022-09-24T02:23:32;101180.09;;;23.64;36.71
63652;BME280;49801;37.536;-122.304;2022-09-24T02:24:05;101181.19;;;23.63;36.92
63652;BME280;49801;37.536;-122.304;2022-09-24T02:24:43;101176.75;;;23.62;36.91
63652;BME280;49801;37.536;-122.304;2022-09-24T02:25:11;101188.06;;;23.61;37.17
63652;BME280;49801;37.536;-122.304;2022-09-24T02:25:42;101179.44;;;23.57;36.98
63652;BME280;49801;37.536;-122.304;2022-09-24T02:26:13;101184.59;;;23.53;37.51
63652;BME280;49801;37.536;-122.304;2022-09-24T02:26:38;101181.81;;;23.53;37.24
63652;BME280;49801;37.536;-122.304;2022-09-24T02:27:04;101185.94;;;23.51;37.34
63652;BME280;49801;37.536;-122.304;2022-09-24T02:27:30;101184.50;;;23.48;37.44
63652;BME280;49801;37.536;-122.304;2022-09-24T02:27:56;101183.06;;;23.46;37.51
63652;BME280;49801;37.536;-122.304;2022-09-24T02:28:22;101188.59;;;23.46;37.56
63652;BME280;49801;37.536;-122.304;2022-09-24T02:28:48;101181.91;;;23.42;37.29
63652;BME280;49801;37.536;-122.304;2022-09-24T02:29:14;101186.56;;;23.41;37.80
63652;BME280;49801;37.536;-122.304;2022-09-24T02:29:39;101189.59;;;23.39;37.66
63652;BME280;49801;37.536;-122.304;2022-09-24T02:30:05;101190.09;;;23.36;37.66
63652;BME280;49801;37.536;-122.304;2022-09-24T02:30:34;101185.06;;;23.33;37.59
63652;BME280;49801;37.536;-122.304;2022-09-24T02:31:06;101181.72;;;23.31;38.06
63652;BME280;49801;37.536;-122.304;2022-09-24T02:31:34;101195.78;;;23.30;38.00
63652;BME280;49801;37.536;-122.304;2022-09-24T02:32:01;101181.34;;;23.28;38.12
63652;BME280;49801;37.536;-122.304;2022-09-24T02:32:28;101192.91;;;23.25;38.27
63652;BME280;49801;37.536;-122.304;2022-09-24T02:32:56;101187.88;;;23.21;37.92
63652;BME280;49801;37.536;-122.304;2022-09-24T02:33:22;101185.34;;;23.20;38.07
63652;BME280;49801;37.536;-122.304;2022-09-24T02:34:08;101183.06;;;23.17;37.95
63652;BME280;49801;37.536;-122.304;2022-09-24T02:34:55;101191.25;;;23.12;37.97
63652;BME280;49801;37.536;-122.304;2022-09-24T02:35:22;101191.50;;;23.10;37.82
63652;BME280;49801;37.536;-122.304;2022-09-24T02:35:47;101192.03;;;23.07;37.95
63652;BME280;49801;37.536;-122.304;2022-09-24T02:36:17;101194.13;;;23.05;38.09
63652;BME280;49801;37.536;-122.304;2022-09-24T02:36:43;101191.63;;;23.03;38.35
63652;BME280;49801;37.536;-122.304;2022-09-24T02:37:10;101199.31;;;23.01;38.25
63652;BME280;49801;37.536;-122.304;2022-09-24T02:37:37;101195.13;;;22.99;38.49
63652;BME280;49801;37.536;-122.304;2022-09-24T02:38:03;101200.91;;;22.97;38.25
63652;BME280;49801;37.536;-122.304;2022-09-24T02:38:29;101199.19;;;22.96;38.41
63652;BME280;49801;37.536;-122.304;2022-09-24T02:38:54;101200.31;;;22.95;38.27
63652;BME280;49801;37.536;-122.304;2022-09-24T02:39:20;101199.97;;;22.92;38.77
63652;BME280;49801;37.536;-122.304;2022-09-24T02:39:46;101201.25;;;22.89;38.96
63652;BME280;49801;37.536;-122.304;2022-09-24T02:40:12;101194.06;;;22.88;38.59
63652;BME280;49801;37.536;-122.304;2022-09-24T02:40:39;101194.56;;;22.85;38.88
63652;BME280;49801;37.536;-122.304;2022-09-24T02:41:05;101195.88;;;22.82;38.65
63652;BME280;49801;37.536;-122.304;2022-09-24T02:41:34;101198.88;;;22.81;38.70